createdAt,value
2022-11-30T00:00:53.071Z,3.84
2022-11-30T00:01:53.244Z,3.68
2022-11-30T00:02:53.539Z,3.68
2022-11-30T00:03:53.632Z,3.68
2022-11-30T00:04:53.787Z,3.68
2022-11-30T00:05:53.939Z,3.68
2022-11-30T00:06:54.104Z,3.68
2022-11-30T00:07:54.252Z,3.68
2022-11-30T00:08:54.394Z,3.68
2022-11-30T00:09:54.495Z,3.68
2022-11-30T00:10:54.641Z,3.68
2022-11-30T00:11:54.824Z,3.68
2022-11-30T00:12:54.939Z,3.84
2022-11-30T00:13:55.175Z,3.68
2022-11-30T00:14:55.210Z,3.92
2022-11-30T00:15:55.348Z,3.68
2022-11-30T00:16:55.498Z,3.68
2022-11-30T00:17:55.644Z,3.6
2022-11-30T00:18:55.768Z,3.68
2022-11-30T00:19:55.913Z,3.68
2022-11-30T00:20:56.066Z,3.68
2022-11-30T00:21:56.210Z,3.84
2022-11-30T00:22:56.369Z,3.68
2022-11-30T00:23:56.512Z,3.84
2022-11-30T00:24:56.667Z,3.68
2022-11-30T00:25:56.824Z,3.84
2022-11-30T00:26:56.975Z,3.84
2022-11-30T00:27:57.127Z,3.84
2022-11-30T00:28:57.272Z,3.84
2022-11-30T00:29:57.423Z,3.84
2022-11-30T00:30:57.572Z,3.84
2022-11-30T00:31:57.667Z,3.68
2022-11-30T00:32:57.784Z,3.6
2022-11-30T00:33:57.938Z,3.84
2022-11-30T00:34:58.024Z,3.68
2022-11-30T00:35:58.185Z,3.84
2022-11-30T00:36:58.346Z,3.68
2022-11-30T00:37:58.497Z,3.68
2022-11-30T00:38:58.614Z,3.68
2022-11-30T00:39:58.774Z,3.68
2022-11-30T00:40:58.890Z,3.68
2022-11-30T00:41:59.042Z,3.84
2022-11-30T00:42:59.201Z,3.68
2022-11-30T00:43:59.344Z,3.6
2022-11-30T00:44:59.504Z,3.6
2022-11-30T00:45:59.675Z,3.6
2022-11-30T00:46:59.787Z,3.6
2022-11-30T00:47:59.915Z,3.6
2022-11-30T00:49:00.060Z,3.6
2022-11-30T00:50:00.218Z,3.6
2022-11-30T00:51:00.356Z,3.68
2022-11-30T00:52:00.451Z,3.6
2022-11-30T00:53:00.607Z,3.6
2022-11-30T00:54:00.767Z,3.52
2022-11-30T00:55:04.006Z,3.6
2022-11-30T00:56:01.030Z,3.6
2022-11-30T00:57:01.157Z,3.52
2022-11-30T00:58:01.307Z,3.52
2022-11-30T00:59:01.422Z,3.52
2022-11-30T01:00:01.572Z,3.6
2022-11-30T01:01:01.776Z,3.52
2022-11-30T01:02:01.938Z,3.44
2022-11-30T01:03:02.023Z,3.52
2022-11-30T01:04:02.183Z,3.52
2022-11-30T01:05:02.326Z,3.52
2022-11-30T01:06:02.473Z,3.6
2022-11-30T01:07:02.582Z,3.6
2022-11-30T01:08:02.734Z,3.68
2022-11-30T01:09:02.833Z,3.68
2022-11-30T01:10:02.941Z,3.6
2022-11-30T01:11:03.078Z,3.6
2022-11-30T01:12:03.236Z,3.6
2022-11-30T01:13:03.386Z,3.52
2022-11-30T01:14:03.550Z,3.6
2022-11-30T01:15:03.693Z,3.52
2022-11-30T01:16:03.865Z,3.6
2022-11-30T01:17:03.938Z,3.6
2022-11-30T01:18:04.083Z,3.6
2022-11-30T01:19:04.190Z,3.52
2022-11-30T01:20:04.350Z,3.52
2022-11-30T01:21:04.492Z,3.52
2022-11-30T01:22:04.599Z,3.44
2022-11-30T01:23:04.758Z,3.44
2022-11-30T01:24:04.900Z,3.52
2022-11-30T01:25:05.063Z,3.52
2022-11-30T01:26:05.204Z,3.44
2022-11-30T01:27:05.310Z,3.52
2022-11-30T01:28:05.452Z,3.52
2022-11-30T01:29:05.614Z,3.44
2022-11-30T01:30:05.768Z,3.52
2022-11-30T01:31:05.960Z,3.52
2022-11-30T01:32:06.010Z,3.6
2022-11-30T01:33:06.179Z,3.6
2022-11-30T01:34:06.322Z,3.52
2022-11-30T01:35:06.798Z,3.44
2022-11-30T01:36:06.931Z,3.44
2022-11-30T01:37:06.756Z,3.44
2022-11-30T01:38:06.860Z,3.44
2022-11-30T01:39:06.960Z,3.52
2022-11-30T01:40:07.080Z,3.44
2022-11-30T01:41:07.231Z,3.44
2022-11-30T01:42:07.384Z,3.52
2022-11-30T01:43:07.531Z,3.52
2022-11-30T01:44:07.680Z,3.52
2022-11-30T01:45:07.835Z,3.6
2022-11-30T01:46:08.046Z,3.52
2022-11-30T01:47:08.126Z,3.44
2022-11-30T01:48:08.321Z,3.52
2022-11-30T01:49:08.429Z,3.52
2022-11-30T01:50:08.616Z,3.44
2022-11-30T01:51:08.760Z,3.44
2022-11-30T01:52:08.893Z,3.52
2022-11-30T01:53:09.045Z,3.52
2022-11-30T01:54:09.191Z,3.44
2022-11-30T01:55:09.344Z,3.44
2022-11-30T01:56:09.455Z,3.28
2022-11-30T01:57:09.551Z,3.52
2022-11-30T01:58:09.691Z,3.52
2022-11-30T01:59:09.790Z,3.52
2022-11-30T02:00:09.961Z,3.52
2022-11-30T02:01:10.120Z,3.6
2022-11-30T02:02:10.258Z,3.52
2022-11-30T02:03:10.366Z,3.44
2022-11-30T02:04:10.468Z,3.28
2022-11-30T02:05:10.617Z,3.44
2022-11-30T02:06:10.760Z,3.52
2022-11-30T02:07:10.927Z,3.44
2022-11-30T02:08:11.194Z,3.44
2022-11-30T02:09:11.217Z,3.44
2022-11-30T02:10:11.372Z,3.52
2022-11-30T02:11:11.522Z,3.44
2022-11-30T02:12:11.668Z,3.52
2022-11-30T02:13:11.771Z,3.6
2022-11-30T02:14:11.891Z,3.6
2022-11-30T02:15:12.027Z,3.6
2022-11-30T02:16:12.158Z,3.52
2022-11-30T02:17:12.288Z,3.52
2022-11-30T02:18:12.387Z,3.52
2022-11-30T02:19:12.533Z,3.28
2022-11-30T02:20:12.685Z,3.44
2022-11-30T02:21:12.832Z,3.52
2022-11-30T02:22:12.995Z,3.44
2022-11-30T02:23:13.093Z,3.52
2022-11-30T02:24:13.239Z,3.44
2022-11-30T02:25:13.386Z,3.52
2022-11-30T02:26:13.489Z,3.52
2022-11-30T02:27:13.668Z,3.44
2022-11-30T02:28:13.805Z,3.6
2022-11-30T02:29:13.946Z,3.52
2022-11-30T02:30:14.045Z,3.52
2022-11-30T02:31:14.199Z,3.52
2022-11-30T02:32:14.291Z,3.44
2022-11-30T02:33:14.396Z,3.28
2022-11-30T02:34:14.585Z,3.44
2022-11-30T02:35:14.712Z,3.44
2022-11-30T02:36:14.857Z,3.44
2022-11-30T02:37:15.008Z,3.44
2022-11-30T02:38:15.159Z,3.44
2022-11-30T02:39:15.318Z,3.44
2022-11-30T02:40:15.463Z,3.44
2022-11-30T02:41:15.613Z,3.6
2022-11-30T02:42:15.723Z,3.52
2022-11-30T02:43:15.869Z,3.52
2022-11-30T02:44:15.970Z,3.44
2022-11-30T02:45:16.118Z,3.44
2022-11-30T02:46:16.262Z,3.44
2022-11-30T02:47:16.326Z,3.28
2022-11-30T02:48:16.478Z,3.44
2022-11-30T02:49:16.625Z,3.44
2022-11-30T02:50:16.793Z,3.44
2022-11-30T02:51:16.931Z,3.44
2022-11-30T02:52:17.087Z,3.44
2022-11-30T02:53:17.238Z,3.44
2022-11-30T02:54:17.389Z,3.44
2022-11-30T02:55:17.543Z,3.52
2022-11-30T02:56:17.696Z,3.52
2022-11-30T02:57:17.843Z,3.44
2022-11-30T02:58:17.991Z,3.28
2022-11-30T02:59:18.139Z,3.28
2022-11-30T03:00:18.295Z,3.28
2022-11-30T03:01:18.488Z,3.28
2022-11-30T03:02:18.627Z,3.28
2022-11-30T03:03:18.694Z,3.28
2022-11-30T03:04:18.852Z,3.28
2022-11-30T03:05:18.960Z,3.28
2022-11-30T03:06:19.117Z,3.28
2022-11-30T03:07:19.311Z,3.44
2022-11-30T03:08:19.414Z,3.44
2022-11-30T03:09:19.576Z,3.44
2022-11-30T03:10:19.712Z,3.44
2022-11-30T03:11:19.855Z,3.28
2022-11-30T03:12:20.016Z,3.28
2022-11-30T03:13:20.129Z,3.44
2022-11-30T03:14:20.267Z,3.28
2022-11-30T03:15:20.411Z,3.28
2022-11-30T03:16:20.640Z,3.28
2022-11-30T03:17:20.706Z,3.28
2022-11-30T03:18:20.870Z,3.28
2022-11-30T03:19:21.023Z,3.28
2022-11-30T03:20:21.171Z,3.28
2022-11-30T03:21:21.326Z,3.28
2022-11-30T03:22:21.478Z,3.28
2022-11-30T03:23:21.582Z,3.52
2022-11-30T03:24:21.715Z,3.44
2022-11-30T03:25:21.884Z,3.2
2022-11-30T03:26:21.994Z,3.28
2022-11-30T03:27:22.124Z,3.28
2022-11-30T03:28:22.376Z,3.28
2022-11-30T03:29:22.492Z,3.28
2022-11-30T03:30:22.651Z,3.2
2022-11-30T03:31:22.826Z,3.28
2022-11-30T03:32:22.933Z,3.2
2022-11-30T03:33:23.039Z,3.28
2022-11-30T03:34:23.149Z,3.28
2022-11-30T03:35:23.249Z,3.28
2022-11-30T03:36:23.392Z,3.28
2022-11-30T03:37:23.495Z,3.28
2022-11-30T03:38:23.643Z,3.2
2022-11-30T03:39:23.753Z,3.2
2022-11-30T03:40:23.909Z,3.2
2022-11-30T03:41:24.055Z,3.2
2022-11-30T03:42:24.169Z,3.28
2022-11-30T03:43:24.312Z,3.2
2022-11-30T03:44:24.460Z,3.2
2022-11-30T03:45:24.604Z,3.2
2022-11-30T03:46:24.787Z,3.28
2022-11-30T03:47:24.899Z,3.28
2022-11-30T03:48:25.046Z,3.2
2022-11-30T03:49:25.148Z,3.28
2022-11-30T03:50:25.321Z,3.28
2022-11-30T03:51:25.424Z,3.28
2022-11-30T03:52:25.569Z,3.2
2022-11-30T03:53:25.720Z,3.2
2022-11-30T03:54:25.873Z,3.2
2022-11-30T03:55:26.040Z,3.2
2022-11-30T03:56:26.184Z,3.28
2022-11-30T03:57:26.335Z,3.2
2022-11-30T03:58:26.472Z,3.2
2022-11-30T03:59:26.612Z,3.28
2022-11-30T04:00:26.847Z,3.28
2022-11-30T04:01:26.916Z,3.2
2022-11-30T04:02:27.131Z,3.28
2022-11-30T04:03:27.190Z,3.28
2022-11-30T04:04:27.312Z,3.28
2022-11-30T04:05:27.388Z,3.44
2022-11-30T04:06:27.539Z,3.28
2022-11-30T04:07:27.728Z,3.2
2022-11-30T04:08:27.843Z,3.2
2022-11-30T04:09:28.002Z,3.2
2022-11-30T04:10:28.139Z,3.2
2022-11-30T04:11:28.297Z,3.2
2022-11-30T04:12:28.445Z,3.2
2022-11-30T04:13:28.617Z,3.2
2022-11-30T04:14:28.759Z,3.2
2022-11-30T04:15:28.908Z,3.28
2022-11-30T04:16:29.070Z,3.28
2022-11-30T04:17:29.116Z,3.28
2022-11-30T04:18:29.257Z,3.28
2022-11-30T04:19:29.396Z,3.28
2022-11-30T04:20:29.498Z,3.2
2022-11-30T04:21:29.597Z,3.2
2022-11-30T04:22:29.765Z,3.12
2022-11-30T04:23:29.911Z,3.2
2022-11-30T04:24:30.060Z,3.2
2022-11-30T04:25:30.153Z,3.2
2022-11-30T04:26:30.264Z,3.12
2022-11-30T04:27:30.430Z,3.2
2022-11-30T04:28:30.576Z,3.12
2022-11-30T04:29:30.723Z,3.2
2022-11-30T04:30:30.873Z,3.2
2022-11-30T04:31:31.092Z,3.2
2022-11-30T04:32:31.162Z,3.2
2022-11-30T04:33:31.334Z,3.2
2022-11-30T04:34:31.482Z,3.12
2022-11-30T04:35:31.591Z,3.12
2022-11-30T04:36:31.732Z,3.12
2022-11-30T04:37:31.883Z,3.2
2022-11-30T04:38:32.031Z,3.12
2022-11-30T04:39:32.177Z,3.12
2022-11-30T04:40:32.289Z,3.12
2022-11-30T04:41:32.389Z,3.12
2022-11-30T04:42:32.542Z,3.12
2022-11-30T04:43:32.694Z,3.12
2022-11-30T04:44:32.843Z,3.2
2022-11-30T04:45:35.444Z,3.2
2022-11-30T04:46:33.152Z,3.2
2022-11-30T04:47:33.281Z,3.2
2022-11-30T04:48:33.404Z,3.2
2022-11-30T04:49:33.566Z,3.12
2022-11-30T04:50:33.703Z,3.12
2022-11-30T04:51:33.862Z,3.12
2022-11-30T04:52:34.012Z,3.12
2022-11-30T04:53:34.170Z,3.12
2022-11-30T04:54:34.280Z,3.12
2022-11-30T04:55:34.411Z,3.2
2022-11-30T04:56:34.569Z,3.12
2022-11-30T04:57:34.715Z,3.12
2022-11-30T04:58:34.865Z,3.2
2022-11-30T04:59:34.974Z,3.28
2022-11-30T05:00:35.108Z,3.2
2022-11-30T05:01:35.282Z,3.12
2022-11-30T05:02:35.419Z,3.12
2022-11-30T05:03:35.570Z,3.04
2022-11-30T05:04:35.773Z,3.04
2022-11-30T05:05:35.896Z,3.04
2022-11-30T05:06:36.012Z,3.04
2022-11-30T05:07:36.223Z,3.04
2022-11-30T05:08:36.336Z,3.12
2022-11-30T05:09:36.471Z,3.12
2022-11-30T05:10:36.571Z,3.12
2022-11-30T05:11:36.684Z,3.12
2022-11-30T05:12:36.835Z,3.2
2022-11-30T05:13:36.946Z,3.28
2022-11-30T05:14:37.101Z,3.12
2022-11-30T05:15:37.184Z,3.12
2022-11-30T05:16:37.386Z,3.04
2022-11-30T05:17:37.499Z,3.04
2022-11-30T05:18:37.655Z,3.04
2022-11-30T05:19:37.793Z,3.04
2022-11-30T05:20:37.952Z,3.12
2022-11-30T05:21:41.307Z,2.88
2022-11-30T05:22:38.212Z,3.12
2022-11-30T05:23:38.362Z,3.04
2022-11-30T05:24:38.503Z,3.12
2022-11-30T05:25:38.665Z,3.12
2022-11-30T05:26:38.808Z,3.2
2022-11-30T05:27:38.952Z,3.12
2022-11-30T05:28:39.114Z,3.04
2022-11-30T05:29:39.262Z,2.88
2022-11-30T05:30:39.400Z,2.88
2022-11-30T05:31:39.640Z,3.04
2022-11-30T05:32:39.717Z,3.04
2022-11-30T05:33:39.837Z,3.04
2022-11-30T05:34:49.967Z,3.04
2022-11-30T05:35:40.122Z,2.88
2022-11-30T05:36:40.268Z,3.04
2022-11-30T05:37:40.421Z,3.04
2022-11-30T05:38:40.530Z,3.04
2022-11-30T05:39:40.680Z,3.04
2022-11-30T05:40:40.783Z,3.2
2022-11-30T05:41:40.933Z,3.2
2022-11-30T05:42:41.085Z,3.12
2022-11-30T05:43:41.231Z,3.04
2022-11-30T05:44:41.383Z,2.88
2022-11-30T05:45:41.519Z,2.88
2022-11-30T05:46:41.688Z,3.04
2022-11-30T05:47:41.792Z,2.88
2022-11-30T05:48:41.945Z,3.04
2022-11-30T05:49:42.094Z,3.04
2022-11-30T05:50:42.240Z,3.04
2022-11-30T05:51:42.396Z,3.12
2022-11-30T05:52:42.539Z,3.04
2022-11-30T05:53:42.702Z,3.12
2022-11-30T05:54:42.808Z,3.04
2022-11-30T05:55:42.948Z,3.04
2022-11-30T05:56:43.109Z,3.04
2022-11-30T05:57:43.202Z,2.88
2022-11-30T05:58:43.364Z,2.88
2022-11-30T05:59:43.507Z,2.88
2022-11-30T06:00:43.601Z,2.88
2022-11-30T06:01:43.799Z,3.04
2022-11-30T06:02:44.024Z,2.88
2022-11-30T06:03:44.046Z,2.88
2022-11-30T06:04:44.205Z,3.04
2022-11-30T06:05:44.315Z,2.88
2022-11-30T06:06:44.461Z,2.8
2022-11-30T06:07:44.670Z,2.88
2022-11-30T06:08:44.773Z,2.88
2022-11-30T06:09:44.872Z,2.88
2022-11-30T06:10:44.974Z,2.8
2022-11-30T06:11:45.122Z,2.8
2022-11-30T06:12:45.279Z,2.8
2022-11-30T06:13:45.426Z,2.8
2022-11-30T06:14:45.868Z,2.8
2022-11-30T06:15:45.714Z,2.8
2022-11-30T06:16:45.893Z,2.72
2022-11-30T06:17:45.982Z,2.8
2022-11-30T06:18:46.132Z,2.8
2022-11-30T06:19:46.287Z,2.8
2022-11-30T06:20:46.431Z,2.88
2022-11-30T06:21:46.539Z,2.88
2022-11-30T06:22:46.705Z,2.8
2022-11-30T06:23:46.827Z,2.88
2022-11-30T06:24:47.188Z,2.8
2022-11-30T06:25:47.099Z,2.8
2022-11-30T06:26:47.247Z,2.8
2022-11-30T06:27:47.556Z,2.72
2022-11-30T06:28:48.350Z,2.72
2022-11-30T06:29:47.855Z,2.72
2022-11-30T06:30:47.991Z,2.64
2022-11-30T06:31:48.216Z,2.72
2022-11-30T06:32:48.307Z,2.64
2022-11-30T06:33:48.410Z,2.8
2022-11-30T06:34:48.666Z,2.8
2022-11-30T06:35:48.704Z,2.88
2022-11-30T06:36:48.861Z,2.8
2022-11-30T06:37:49.021Z,2.8
2022-11-30T06:38:49.173Z,2.8
2022-11-30T06:40:06.308Z,2.64
2022-11-30T06:40:49.417Z,2.72
2022-11-30T06:41:54.288Z,2.72
2022-11-30T06:42:49.729Z,2.72
2022-11-30T06:43:49.871Z,2.72
2022-11-30T06:44:50.188Z,2.72
2022-11-30T06:45:50.175Z,2.72
2022-11-30T06:46:50.310Z,2.64
2022-11-30T06:47:50.477Z,2.48
2022-11-30T06:48:50.616Z,2.48
2022-11-30T06:49:50.781Z,2.4
2022-11-30T06:50:50.875Z,2.64
2022-11-30T06:51:51.038Z,2.48
2022-11-30T06:52:51.185Z,2.48
2022-11-30T06:53:51.764Z,2.4
2022-11-30T06:54:51.495Z,2.4
2022-11-30T06:55:51.590Z,2.4
2022-11-30T06:56:51.738Z,2.4
2022-11-30T06:57:51.887Z,2.4
2022-11-30T06:58:52.037Z,2.48
2022-11-30T06:59:52.200Z,2.4
2022-11-30T07:00:52.343Z,2.32
2022-11-30T07:01:52.493Z,2.32
2022-11-30T07:02:52.645Z,2.4
2022-11-30T07:03:52.820Z,2.32
2022-11-30T07:04:52.953Z,2.32
2022-11-30T07:05:53.099Z,2.24
2022-11-30T07:06:53.248Z,2.24
2022-11-30T07:07:53.364Z,2.24
2022-11-30T07:08:53.511Z,2.24
2022-11-30T07:09:53.659Z,2.24
2022-11-30T07:10:53.823Z,2.08
2022-11-30T07:11:53.967Z,2.08
2022-11-30T07:12:54.109Z,2.24
2022-11-30T07:13:54.272Z,2.32
2022-11-30T07:14:54.419Z,2.4
2022-11-30T07:15:54.552Z,2.72
2022-11-30T07:16:54.789Z,2.48
2022-11-30T07:17:54.851Z,2.4
2022-11-30T07:18:54.975Z,2.24
2022-11-30T07:19:55.118Z,2.32
2022-11-30T07:20:55.282Z,2.32
2022-11-30T07:21:55.423Z,2.32
2022-11-30T07:22:55.592Z,2.32
2022-11-30T07:23:56.523Z,2.32
2022-11-30T07:24:55.890Z,2.32
2022-11-30T07:25:56.033Z,2.32
2022-11-30T07:26:56.193Z,2.32
2022-11-30T07:27:56.334Z,2.4
2022-11-30T07:28:56.485Z,2.4
2022-11-30T07:29:56.647Z,2.48
2022-11-30T07:30:56.776Z,2.32
2022-11-30T07:31:56.999Z,2.08
2022-11-30T07:32:57.090Z,2.32
2022-11-30T07:33:57.258Z,2.32
2022-11-30T07:34:57.350Z,2.32
2022-11-30T07:35:57.491Z,2.32
2022-11-30T07:36:57.657Z,2.32
2022-11-30T07:37:57.810Z,2.4
2022-11-30T07:38:57.897Z,2.32
2022-11-30T07:39:58.204Z,2.4
2022-11-30T07:40:58.202Z,2.32
2022-11-30T07:41:58.365Z,2.32
2022-11-30T07:42:58.500Z,2.48
2022-11-30T07:43:58.662Z,2.4
2022-11-30T07:44:59.292Z,2.4
2022-11-30T07:45:58.974Z,2.32
2022-11-30T07:46:59.075Z,2.32
2022-11-30T07:47:59.216Z,2.32
2022-11-30T07:48:59.314Z,2.32
2022-11-30T07:49:59.463Z,2.4
2022-11-30T07:50:59.622Z,2.4
2022-11-30T07:51:59.762Z,2.48
2022-11-30T07:52:59.928Z,2.4
2022-11-30T07:54:00.089Z,2.4
2022-11-30T07:55:00.238Z,2.48
2022-11-30T07:56:00.380Z,2.64
2022-11-30T07:57:00.474Z,2.4
2022-11-30T07:58:00.635Z,2.4
2022-11-30T07:59:00.798Z,2.4
2022-11-30T08:00:00.932Z,2.4
2022-11-30T08:01:01.155Z,2.48
2022-11-30T08:02:01.455Z,2.48
2022-11-30T08:03:01.378Z,2.48
2022-11-30T08:04:01.469Z,2.48
2022-11-30T08:05:01.698Z,2.72
2022-11-30T08:06:01.794Z,2.72
2022-11-30T08:07:01.939Z,2.72
2022-11-30T08:08:02.128Z,2.72
2022-11-30T08:09:02.619Z,2.88
2022-11-30T08:10:02.353Z,3.04
2022-11-30T08:11:02.492Z,2.8
2022-11-30T08:12:02.605Z,2.8
2022-11-30T08:13:02.775Z,2.72
2022-11-30T08:14:02.910Z,2.64
2022-11-30T08:15:20.101Z,2.72
2022-11-30T08:16:03.185Z,2.72
2022-11-30T08:17:03.359Z,2.72
2022-11-30T08:18:03.471Z,2.72
2022-11-30T08:19:03.607Z,2.8
2022-11-30T08:20:03.761Z,2.72
2022-11-30T08:21:03.865Z,2.8
2022-11-30T08:22:04.011Z,2.8
2022-11-30T08:23:04.119Z,2.88
2022-11-30T08:24:04.325Z,2.88
2022-11-30T08:25:04.433Z,2.8
2022-11-30T08:26:04.566Z,2.8
2022-11-30T08:27:04.718Z,2.8
2022-11-30T08:28:04.871Z,2.8
2022-11-30T08:29:05.022Z,2.8
2022-11-30T08:30:05.175Z,2.72
2022-11-30T08:31:05.404Z,2.8
2022-11-30T08:32:05.467Z,2.8
2022-11-30T08:33:06.022Z,2.8
2022-11-30T08:34:06.150Z,2.88
2022-11-30T08:35:05.890Z,2.88
2022-11-30T08:36:06.031Z,3.04
2022-11-30T08:37:06.190Z,2.88
2022-11-30T08:38:06.337Z,3.12
2022-11-30T08:39:06.438Z,3.28
2022-11-30T08:40:06.590Z,3.28
2022-11-30T08:41:06.735Z,3.28
2022-11-30T08:42:06.891Z,3.6
2022-11-30T08:43:07.040Z,3.92
2022-11-30T08:44:07.192Z,4.4
2022-11-30T08:45:07.357Z,4.72
2022-11-30T08:46:21.525Z,5.28
2022-11-30T08:47:07.685Z,5.92
2022-11-30T08:48:07.813Z,6.08
2022-11-30T08:49:20.748Z,5.84
2022-11-30T08:50:08.108Z,5.6
2022-11-30T08:51:08.263Z,5.2
2022-11-30T08:52:17.297Z,5.2
2022-11-30T08:53:08.938Z,5.44
2022-11-30T08:54:08.672Z,5.44
2022-11-30T08:55:08.813Z,5.92
2022-11-30T08:56:08.961Z,5.68
2022-11-30T08:57:09.127Z,5.84
2022-11-30T08:58:09.225Z,5.68
2022-11-30T08:59:09.364Z,5.68
2022-11-30T09:00:09.518Z,5.6
2022-11-30T09:01:09.653Z,5.84
2022-11-30T09:02:09.861Z,5.52
2022-11-30T09:03:09.977Z,5.44
2022-11-30T09:04:10.129Z,5.28
2022-11-30T09:05:10.607Z,5.12
2022-11-30T09:06:10.628Z,5.28
2022-11-30T09:07:10.775Z,5.2
2022-11-30T09:08:10.995Z,5.28
2022-11-30T09:09:11.034Z,5.44
2022-11-30T09:10:11.165Z,5.28
2022-11-30T09:11:11.338Z,5.2
2022-11-30T09:12:11.435Z,5.84
2022-11-30T09:13:11.589Z,5.28
2022-11-30T09:14:11.737Z,5.28
2022-11-30T09:15:11.890Z,5.2
2022-11-30T09:16:12.064Z,5.28
2022-11-30T09:17:12.142Z,5.12
2022-11-30T09:18:12.256Z,5.04
2022-11-30T09:19:12.397Z,5.04
2022-11-30T09:20:12.509Z,5.2
2022-11-30T09:21:12.650Z,5.04
2022-11-30T09:22:12.807Z,4.8
2022-11-30T09:23:12.952Z,4.88
2022-11-30T09:24:13.106Z,5.04
2022-11-30T09:25:13.250Z,5.2
2022-11-30T09:26:13.448Z,5.2
2022-11-30T09:27:13.556Z,5.28
2022-11-30T09:28:13.730Z,5.28
2022-11-30T09:29:13.881Z,5.04
2022-11-30T09:30:13.972Z,5.44
2022-11-30T09:31:14.119Z,5.44
2022-11-30T09:32:14.174Z,5.2
2022-11-30T09:33:14.315Z,4.8
2022-11-30T09:34:14.430Z,4.64
2022-11-30T09:35:14.522Z,4.64
2022-11-30T09:36:14.675Z,4.4
2022-11-30T09:37:14.811Z,4.4
2022-11-30T09:38:14.973Z,4.8
2022-11-30T09:39:15.145Z,4.88
2022-11-30T09:40:15.284Z,5.28
2022-11-30T09:41:15.424Z,5.44
2022-11-30T09:42:15.577Z,5.44
2022-11-30T09:43:15.731Z,5.52
2022-11-30T09:44:15.884Z,5.44
2022-11-30T09:45:16.042Z,5.2
2022-11-30T09:46:16.265Z,5.44
2022-11-30T09:47:16.323Z,5.6
2022-11-30T09:48:16.494Z,5.52
2022-11-30T09:49:16.596Z,5.6
2022-11-30T09:50:16.740Z,6.08
2022-11-30T09:51:16.892Z,6.32
2022-11-30T09:52:17.054Z,6
2022-11-30T09:53:17.146Z,6.48
2022-11-30T09:54:17.300Z,6.4
2022-11-30T09:55:17.451Z,6.32
2022-11-30T09:56:17.601Z,6.64
2022-11-30T09:57:17.752Z,6.24
2022-11-30T09:58:17.930Z,7.04
2022-11-30T09:59:18.056Z,6.8
2022-11-30T10:00:18.216Z,6.8
2022-11-30T10:01:18.455Z,6.08
2022-11-30T10:02:18.641Z,5.92
2022-11-30T10:03:18.670Z,5.68
2022-11-30T10:04:18.806Z,5.68
2022-11-30T10:05:18.955Z,5.68
2022-11-30T10:06:19.056Z,5.68
2022-11-30T10:07:19.322Z,6
2022-11-30T10:08:19.354Z,6.48
2022-11-30T10:09:19.461Z,6.4
2022-11-30T10:10:32.939Z,6.4
2022-11-30T10:11:19.730Z,6.24
2022-11-30T10:12:19.883Z,6.48
2022-11-30T10:13:20.029Z,6
2022-11-30T10:14:20.173Z,5.84
2022-11-30T10:15:20.329Z,6.08
2022-11-30T10:16:20.485Z,6.4
2022-11-30T10:17:20.565Z,6.4
2022-11-30T10:18:20.743Z,6.32
2022-11-30T10:19:20.893Z,6.4
2022-11-30T10:20:21.044Z,6.64
2022-11-30T10:21:21.298Z,6.64
2022-11-30T10:22:21.455Z,6.48
2022-11-30T10:23:21.597Z,7.52
2022-11-30T10:24:21.750Z,6.88
2022-11-30T10:25:21.899Z,7.12
2022-11-30T10:26:22.043Z,6.24
2022-11-30T10:27:22.204Z,6.64
2022-11-30T10:28:46.163Z,5.92
2022-11-30T10:29:22.503Z,6.08
2022-11-30T10:30:22.661Z,6.24
2022-11-30T10:31:22.834Z,6
2022-11-30T10:32:22.886Z,6
2022-11-30T10:33:22.989Z,5.92
2022-11-30T10:34:23.104Z,5.84
2022-11-30T10:35:23.254Z,5.84
2022-11-30T10:36:23.416Z,5.68
2022-11-30T10:37:23.522Z,5.52
2022-11-30T10:38:23.657Z,5.68
2022-11-30T10:39:23.813Z,5.52
2022-11-30T10:40:23.988Z,5.44
2022-11-30T10:41:24.115Z,5.92
2022-11-30T10:42:24.278Z,6.32
2022-11-30T10:43:24.427Z,6.48
2022-11-30T10:44:24.558Z,6.48
2022-11-30T10:45:24.721Z,5.92
2022-11-30T10:46:24.903Z,6.24
2022-11-30T10:47:24.966Z,6.08
2022-11-30T10:48:25.062Z,6.24
2022-11-30T10:49:25.190Z,6.48
2022-11-30T10:50:25.663Z,6
2022-11-30T10:51:25.814Z,6.32
2022-11-30T10:52:25.976Z,6.88
2022-11-30T10:53:25.771Z,7.44
2022-11-30T10:54:25.872Z,6.72
2022-11-30T10:55:26.032Z,6.08
2022-11-30T10:56:26.186Z,6.4
2022-11-30T10:57:26.358Z,6.24
2022-11-30T10:58:26.520Z,5.92
2022-11-30T10:59:26.657Z,6
2022-11-30T11:00:26.795Z,5.84
2022-11-30T11:01:26.966Z,5.44
2022-11-30T11:02:27.130Z,5.2
2022-11-30T11:03:27.232Z,5.6
2022-11-30T11:04:27.417Z,5.68
2022-11-30T11:05:27.503Z,5.6
2022-11-30T11:06:27.644Z,5.84
2022-11-30T11:07:27.860Z,5.52
2022-11-30T11:08:27.925Z,6.4
2022-11-30T11:09:28.052Z,6.4
2022-11-30T11:10:28.209Z,6.4
2022-11-30T11:11:28.359Z,6.48
2022-11-30T11:12:28.514Z,6.88
2022-11-30T11:13:28.670Z,6.32
2022-11-30T11:14:31.323Z,5.84
2022-11-30T11:15:29.046Z,5.44
2022-11-30T11:16:29.161Z,5.68
2022-11-30T11:17:29.201Z,5.84
2022-11-30T11:18:29.319Z,5.28
2022-11-30T11:19:29.478Z,5.44
2022-11-30T11:20:29.610Z,5.68
2022-11-30T11:21:29.779Z,5.84
2022-11-30T11:22:29.866Z,6
2022-11-30T11:23:30.017Z,6.32
2022-11-30T11:24:30.177Z,6.08
2022-11-30T11:25:30.326Z,5.84
2022-11-30T11:26:30.483Z,6.64
2022-11-30T11:27:30.640Z,6.48
2022-11-30T11:28:30.789Z,6.64
2022-11-30T11:29:30.935Z,6.4
2022-11-30T11:30:31.100Z,6.24
2022-11-30T11:31:31.255Z,7.84
2022-11-30T11:32:31.330Z,7.12
2022-11-30T11:33:31.494Z,6.64
2022-11-30T11:34:31.638Z,6.32
2022-11-30T11:35:31.791Z,6.64
2022-11-30T11:36:31.944Z,6.72
2022-11-30T11:37:32.090Z,6.4
2022-11-30T11:38:32.251Z,6
2022-11-30T11:39:32.407Z,6.48
2022-11-30T11:40:32.548Z,7.28
2022-11-30T11:41:32.703Z,6.88
2022-11-30T11:42:32.804Z,6.4
2022-11-30T11:43:32.966Z,6.64
2022-11-30T11:44:33.108Z,6.48
2022-11-30T11:45:33.267Z,6.08
2022-11-30T11:46:33.454Z,6.72
2022-11-30T11:47:33.514Z,6.8
2022-11-30T11:48:33.744Z,6.64
2022-11-30T11:49:33.820Z,6.88
2022-11-30T11:51:34.111Z,7.2
2022-11-30T11:52:34.242Z,7.04
2022-11-30T11:53:37.022Z,6.48
2022-11-30T11:54:34.490Z,5.92
2022-11-30T11:55:34.621Z,6.24
2022-11-30T11:56:34.782Z,6
2022-11-30T11:57:34.926Z,6
2022-11-30T11:58:35.075Z,6.88
2022-11-30T11:59:35.226Z,6.72
2022-11-30T12:00:35.361Z,6.4
2022-11-30T12:01:39.569Z,5.92
2022-11-30T12:02:35.703Z,5.92
2022-11-30T12:03:35.783Z,5.92
2022-11-30T12:04:36.038Z,5.44
2022-11-30T12:05:36.050Z,5.04
2022-11-30T12:06:36.187Z,4.88
2022-11-30T12:07:36.386Z,4.72
2022-11-30T12:08:36.495Z,4.64
2022-11-30T12:09:36.649Z,4.88
2022-11-30T12:10:51.541Z,4.8
2022-11-30T12:11:36.948Z,4.64
2022-11-30T12:12:39.960Z,4.64
2022-11-30T12:13:37.257Z,4.88
2022-11-30T12:14:37.397Z,4.64
2022-11-30T12:15:37.540Z,4.4
2022-11-30T12:16:37.695Z,4.16
2022-11-30T12:17:37.816Z,4.16
2022-11-30T12:18:37.955Z,4.16
2022-11-30T12:19:38.069Z,4.08
2022-11-30T12:20:38.208Z,4.16
2022-11-30T12:21:38.354Z,4.16
2022-11-30T12:22:38.517Z,4.16
2022-11-30T12:23:38.655Z,4.16
2022-11-30T12:24:38.814Z,4.08
2022-11-30T12:25:38.976Z,4.16
2022-11-30T12:26:39.123Z,4.16
2022-11-30T12:27:39.274Z,4.16
2022-11-30T12:28:39.591Z,4.08
2022-11-30T12:29:39.735Z,4
2022-11-30T12:30:39.865Z,4
2022-11-30T12:31:40.116Z,4
2022-11-30T12:32:40.140Z,4.08
2022-11-30T12:33:40.280Z,4.32
2022-11-30T12:34:40.435Z,4.08
2022-11-30T12:35:40.582Z,4.32
2022-11-30T12:36:40.731Z,4.32
2022-11-30T12:37:45.925Z,4.16
2022-11-30T12:38:41.043Z,4.16
2022-11-30T12:39:41.195Z,4.16
2022-11-30T12:40:41.348Z,4.16
2022-11-30T12:41:41.489Z,4.32
2022-11-30T12:42:41.645Z,4.4
2022-11-30T12:43:41.801Z,4.32
2022-11-30T12:44:42.468Z,4.48
2022-11-30T12:45:42.086Z,4.48
2022-11-30T12:46:42.324Z,4.64
2022-11-30T12:47:42.408Z,4.64
2022-11-30T12:48:42.539Z,4.4
2022-11-30T12:49:42.654Z,4.4
2022-11-30T12:50:42.751Z,4.64
2022-11-30T12:51:42.910Z,4.64
2022-11-30T12:52:43.056Z,4.4
2022-11-30T12:53:43.209Z,4.64
2022-11-30T12:54:43.308Z,4.64
2022-11-30T12:55:43.462Z,4.64
2022-11-30T12:56:46.088Z,4.48
2022-11-30T12:57:43.722Z,4.64
2022-11-30T12:58:43.863Z,4.64
2022-11-30T12:59:44.021Z,4.48
2022-11-30T13:00:44.511Z,4.72
2022-11-30T13:01:44.352Z,4.64
2022-11-30T13:02:44.420Z,4.8
2022-11-30T13:03:44.573Z,4.8
2022-11-30T13:04:45.031Z,4.8
2022-11-30T13:05:44.992Z,4.88
2022-11-30T13:06:45.140Z,4.88
2022-11-30T13:07:45.425Z,5.2
2022-11-30T13:08:45.442Z,5.12
2022-11-30T13:09:45.578Z,5.12
2022-11-30T13:10:45.693Z,5.12
2022-11-30T13:11:45.827Z,5.2
2022-11-30T13:12:45.982Z,5.12
2022-11-30T13:13:46.155Z,5.2
2022-11-30T13:14:46.720Z,5.2
2022-11-30T13:15:46.463Z,5.12
2022-11-30T13:16:46.529Z,5.12
2022-11-30T13:17:46.696Z,5.2
2022-11-30T13:18:46.847Z,5.2
2022-11-30T13:19:46.953Z,5.28
2022-11-30T13:20:47.053Z,5.44
2022-11-30T13:21:47.201Z,5.2
2022-11-30T13:22:47.410Z,5.28
2022-11-30T13:23:47.583Z,5.52
2022-11-30T13:24:48.041Z,5.44
2022-11-30T13:26:08.122Z,5.68
2022-11-30T13:26:48.107Z,5.68
2022-11-30T13:27:48.255Z,5.52
2022-11-30T13:28:48.373Z,5.52
2022-11-30T13:29:48.561Z,5.84